sensor_id;sensor_type;location;lat;lon;timestamp;pressure;altitude;pressure_sealevel;temperature;humidity
4199;BME280;2113;50.946;14.610;2023-03-20T00:01:11;97160.59;;;5.47;95.13
4199;BME280;2113;50.946;14.610;2023-03-20T00:03:40;97153.06;;;5.56;95.32
4199;BME280;2113;50.946;14.610;2023-03-20T00:06:15;97157.19;;;5.59;94.90
4199;BME280;2113;50.946;14.610;2023-03-20T00:08:45;97160.19;;;5.65;95.38
4199;BME280;2113;50.946;14.610;2023-03-20T00:11:29;97154.81;;;5.56;95.06
4199;BME280;2113;50.946;14.610;2023-03-20T00:14:01;97154.09;;;5.41;94.73
4199;BME280;2113;50.946;14.610;2023-03-20T00:16:31;97160.84;;;5.31;94.99
4199;BME280;2113;50.946;14.610;2023-03-20T00:19:00;97157.09;;;5.22;95.03
4199;BME280;2113;50.946;14.610;2023-03-20T00:21:30;97161.97;;;5.27;95.08
4199;BME280;2113;50.946;14.610;2023-03-20T00:23:58;97169.66;;;5.28;95.11
4199;BME280;2113;50.946;14.610;2023-03-20T00:26:31;97166.22;;;5.28;95.29
4199;BME280;2113;50.946;14.610;2023-03-20T00:29:01;97166.72;;;5.33;95.26
4199;BME280;2113;50.946;14.610;2023-03-20T00:31:33;97161.03;;;5.41;94.79
4199;BME280;2113;50.946;14.610;2023-03-20T00:34:03;97159.69;;;5.48;94.61
4199;BME280;2113;50.946;14.610;2023-03-20T00:36:33;97155.75;;;5.55;94.73
4199;BME280;2113;50.946;14.610;2023-03-20T00:39:02;97164.03;;;5.60;94.75
4199;BME280;2113;50.946;14.610;2023-03-20T00:41:32;97161.22;;;5.63;94.88
4199;BME280;2113;50.946;14.610;2023-03-20T00:44:14;97158.59;;;5.76;94.96
4199;BME280;2113;50.946;14.610;2023-03-20T00:46:46;97161.59;;;5.82;94.59
4199;BME280;2113;50.946;14.610;2023-03-20T00:49:17;97163.25;;;5.83;94.43
4199;BME280;2113;50.946;14.610;2023-03-20T00:51:46;97155.88;;;5.90;94.52
4199;BME280;2113;50.946;14.610;2023-03-20T00:54:16;97152.53;;;5.88;94.55
4199;BME280;2113;50.946;14.610;2023-03-20T00:56:47;97153.09;;;5.93;94.34
4199;BME280;2113;50.946;14.610;2023-03-20T00:59:21;97154.84;;;5.92;94.37
4199;BME280;2113;50.946;14.610;2023-03-20T01:01:51;97158.91;;;5.96;94.19
4199;BME280;2113;50.946;14.610;2023-03-20T01:04:21;97151.00;;;5.98;93.88
4199;BME280;2113;50.946;14.610;2023-03-20T01:06:51;97152.78;;;5.97;94.23
4199;BME280;2113;50.946;14.610;2023-03-20T01:09:19;97150.19;;;5.97;94.11
4199;BME280;2113;50.946;14.610;2023-03-20T01:11:48;97143.81;;;6.01;94.05
4199;BME280;2113;50.946;14.610;2023-03-20T01:14:19;97148.41;;;5.98;93.67
4199;BME280;2113;50.946;14.610;2023-03-20T01:16:47;97146.66;;;5.98;93.53
4199;BME280;2113;50.946;14.610;2023-03-20T01:19:15;97141.22;;;6.01;93.84
4199;BME280;2113;50.946;14.610;2023-03-20T01:21:44;97151.59;;;6.01;93.97
4199;BME280;2113;50.946;14.610;2023-03-20T01:24:14;97148.31;;;5.99;93.88
4199;BME280;2113;50.946;14.610;2023-03-20T01:26:43;97155.16;;;6.00;93.94
4199;BME280;2113;50.946;14.610;2023-03-20T01:29:17;97154.50;;;6.10;93.75
4199;BME280;2113;50.946;14.610;2023-03-20T01:31:45;97158.75;;;6.11;93.68
4199;BME280;2113;50.946;14.610;2023-03-20T01:34:14;97158.63;;;6.12;93.44
4199;BME280;2113;50.946;14.610;2023-03-20T01:36:46;97163.00;;;6.12;93.10
4199;BME280;2113;50.946;14.610;2023-03-20T01:39:17;97159.56;;;6.11;93.21
4199;BME280;2113;50.946;14.610;2023-03-20T01:41:48;97156.25;;;6.09;93.67
4199;BME280;2113;50.946;14.610;2023-03-20T01:44:19;97154.72;;;6.06;93.39
4199;BME280;2113;50.946;14.610;2023-03-20T01:46:52;97153.03;;;6.05;93.57
4199;BME280;2113;50.946;14.610;2023-03-20T01:50:15;97156.56;;;6.04;93.88
4199;BME280;2113;50.946;14.610;2023-03-20T01:52:47;97156.56;;;6.04;93.96
4199;BME280;2113;50.946;14.610;2023-03-20T01:55:19;97150.56;;;6.04;93.94
4199;BME280;2113;50.946;14.610;2023-03-20T01:57:56;97153.97;;;6.04;93.77
4199;BME280;2113;50.946;14.610;2023-03-20T02:00:25;97158.97;;;6.07;93.86
4199;BME280;2113;50.946;14.610;2023-03-20T02:02:54;97155.44;;;6.09;94.33
4199;BME280;2113;50.946;14.610;2023-03-20T02:05:43;97155.31;;;6.10;94.65
4199;BME280;2113;50.946;14.610;2023-03-20T02:08:16;97147.34;;;6.13;94.82
4199;BME280;2113;50.946;14.610;2023-03-20T02:10:48;97153.00;;;6.18;94.39
4199;BME280;2113;50.946;14.610;2023-03-20T02:13:23;97150.41;;;6.18;94.71
4199;BME280;2113;50.946;14.610;2023-03-20T02:16:03;97141.16;;;6.27;94.08
4199;BME280;2113;50.946;14.610;2023-03-20T02:18:55;97142.47;;;6.32;93.70
4199;BME280;2113;50.946;14.610;2023-03-20T02:21:56;97141.63;;;6.32;93.54
4199;BME280;2113;50.946;14.610;2023-03-20T02:24:50;97131.75;;;6.37;92.89
4199;BME280;2113;50.946;14.610;2023-03-20T02:27:38;97134.84;;;6.42;91.99
4199;BME280;2113;50.946;14.610;2023-03-20T02:30:47;97138.22;;;6.55;91.39
4199;BME280;2113;50.946;14.610;2023-03-20T02:33:41;97131.75;;;6.37;92.49
4199;BME280;2113;50.946;14.610;2023-03-20T02:39:41;97138.00;;;6.11;93.78
4199;BME280;2113;50.946;14.610;2023-03-20T02:42:20;97138.09;;;6.09;93.92
4199;BME280;2113;50.946;14.610;2023-03-20T02:44:59;97129.50;;;6.09;93.94
4199;BME280;2113;50.946;14.610;2023-03-20T02:47:36;97139.66;;;6.12;93.63
4199;BME280;2113;50.946;14.610;2023-03-20T02:50:20;97143.19;;;6.11;93.78
4199;BME280;2113;50.946;14.610;2023-03-20T02:53:00;97140.50;;;6.12;93.66
4199;BME280;2113;50.946;14.610;2023-03-20T02:55:39;97139.44;;;6.15;93.65
4199;BME280;2113;50.946;14.610;2023-03-20T02:58:11;97134.19;;;6.03;93.93
4199;BME280;2113;50.946;14.610;2023-03-20T03:00:46;97136.28;;;5.98;94.06
4199;BME280;2113;50.946;14.610;2023-03-20T03:03:20;97132.41;;;6.04;93.88
4199;BME280;2113;50.946;14.610;2023-03-20T03:05:54;97141.84;;;6.05;93.64
4199;BME280;2113;50.946;14.610;2023-03-20T03:08:29;97144.16;;;5.97;93.42
4199;BME280;2113;50.946;14.610;2023-03-20T03:11:03;97142.72;;;5.93;93.63
4199;BME280;2113;50.946;14.610;2023-03-20T03:13:35;97141.16;;;5.90;93.66
4199;BME280;2113;50.946;14.610;2023-03-20T03:16:09;97143.78;;;5.78;93.99
4199;BME280;2113;50.946;14.610;2023-03-20T03:18:39;97141.63;;;5.71;94.18
4199;BME280;2113;50.946;14.610;2023-03-20T03:21:11;97144.94;;;5.61;94.29
4199;BME280;2113;50.946;14.610;2023-03-20T03:23:42;97140.59;;;5.61;94.62
4199;BME280;2113;50.946;14.610;2023-03-20T03:26:18;97138.53;;;5.54;94.51
4199;BME280;2113;50.946;14.610;2023-03-20T03:28:51;97152.22;;;5.56;94.62
4199;BME280;2113;50.946;14.610;2023-03-20T03:31:22;97147.25;;;5.53;95.01
4199;BME280;2113;50.946;14.610;2023-03-20T03:33:52;97142.91;;;5.53;94.58
4199;BME280;2113;50.946;14.610;2023-03-20T03:36:34;97148.47;;;5.47;94.92
4199;BME280;2113;50.946;14.610;2023-03-20T03:39:11;97145.50;;;5.41;94.95
4199;BME280;2113;50.946;14.610;2023-03-20T03:41:49;97144.25;;;5.33;95.00
4199;BME280;2113;50.946;14.610;2023-03-20T03:44:24;97143.75;;;5.28;95.19
4199;BME280;2113;50.946;14.610;2023-03-20T03:46:56;97140.13;;;5.31;95.47
4199;BME280;2113;50.946;14.610;2023-03-20T03:49:29;97144.16;;;5.35;95.41
4199;BME280;2113;50.946;14.610;2023-03-20T03:52:01;97145.22;;;5.32;95.53
4199;BME280;2113;50.946;14.610;2023-03-20T03:54:35;97143.94;;;5.38;95.87
4199;BME280;2113;50.946;14.610;2023-03-20T03:57:30;97139.47;;;5.53;95.87
4199;BME280;2113;50.946;14.610;2023-03-20T04:00:02;97145.91;;;5.60;95.85
4199;BME280;2113;50.946;14.610;2023-03-20T04:02:44;97145.34;;;5.67;95.76
4199;BME280;2113;50.946;14.610;2023-03-20T04:05:15;97144.94;;;5.74;95.75
4199;BME280;2113;50.946;14.610;2023-03-20T04:07:45;97143.16;;;5.87;95.36
4199;BME280;2113;50.946;14.610;2023-03-20T04:10:16;97141.47;;;5.86;95.60
4199;BME280;2113;50.946;14.610;2023-03-20T04:12:45;97141.69;;;5.83;95.46
4199;BME280;2113;50.946;14.610;2023-03-20T04:15:14;97143.16;;;5.87;95.05
4199;BME280;2113;50.946;14.610;2023-03-20T04:17:43;97133.59;;;5.87;95.33
4199;BME280;2113;50.946;14.610;2023-03-20T04:20:13;97143.97;;;5.87;95.14
4199;BME280;2113;50.946;14.610;2023-03-20T04:22:42;97142.53;;;5.83;95.23
4199;BME280;2113;50.946;14.610;2023-03-20T04:25:16;97146.66;;;5.86;94.96
4199;BME280;2113;50.946;14.610;2023-03-20T04:27:46;97139.94;;;5.83;94.70
4199;BME280;2113;50.946;14.610;2023-03-20T04:30:22;97137.44;;;5.82;94.70
4199;BME280;2113;50.946;14.610;2023-03-20T04:33:09;97132.78;;;5.74;95.25
4199;BME280;2113;50.946;14.610;2023-03-20T04:36:10;97137.75;;;5.77;94.92
4199;BME280;2113;50.946;14.610;2023-03-20T04:38:39;97137.66;;;5.79;95.09
4199;BME280;2113;50.946;14.610;2023-03-20T04:41:08;97146.38;;;5.78;94.96
4199;BME280;2113;50.946;14.610;2023-03-20T04:43:39;97151.44;;;5.79;94.99
4199;BME280;2113;50.946;14.610;2023-03-20T04:46:07;97139.81;;;5.85;95.15
4199;BME280;2113;50.946;14.610;2023-03-20T04:48:36;97143.03;;;5.88;94.78
4199;BME280;2113;50.946;14.610;2023-03-20T04:51:05;97141.47;;;5.86;94.77
4199;BME280;2113;50.946;14.610;2023-03-20T04:53:43;97140.75;;;5.84;94.38
4199;BME280;2113;50.946;14.610;2023-03-20T04:56:11;97144.19;;;5.84;94.62
4199;BME280;2113;50.946;14.610;2023-03-20T04:58:41;97148.53;;;5.84;94.66
4199;BME280;2113;50.946;14.610;2023-03-20T05:01:09;97151.44;;;5.79;94.53
4199;BME280;2113;50.946;14.610;2023-03-20T05:03:39;97154.97;;;5.78;94.72
4199;BME280;2113;50.946;14.610;2023-03-20T05:06:08;97152.38;;;5.78;95.07
4199;BME280;2113;50.946;14.610;2023-03-20T05:08:42;97151.03;;;5.85;94.96
4199;BME280;2113;50.946;14.610;2023-03-20T05:11:10;97151.75;;;5.87;94.56
4199;BME280;2113;50.946;14.610;2023-03-20T05:13:58;97153.91;;;5.93;94.92
4199;BME280;2113;50.946;14.610;2023-03-20T05:16:47;97162.88;;;6.13;94.65
4199;BME280;2113;50.946;14.610;2023-03-20T05:19:23;97165.97;;;6.18;93.98
4199;BME280;2113;50.946;14.610;2023-03-20T05:22:10;97166.91;;;6.17;94.27
4199;BME280;2113;50.946;14.610;2023-03-20T05:24:57;97164.53;;;6.14;94.22
4199;BME280;2113;50.946;14.610;2023-03-20T05:27:45;97166.78;;;6.19;93.96
4199;BME280;2113;50.946;14.610;2023-03-20T05:30:35;97171.56;;;6.25;94.17
4199;BME280;2113;50.946;14.610;2023-03-20T05:33:29;97170.78;;;6.35;93.46
4199;BME280;2113;50.946;14.610;2023-03-20T05:36:16;97172.47;;;6.48;92.77
4199;BME280;2113;50.946;14.610;2023-03-20T05:39:13;97168.72;;;6.52;92.57
4199;BME280;2113;50.946;14.610;2023-03-20T05:42:00;97177.13;;;6.55;92.75
4199;BME280;2113;50.946;14.610;2023-03-20T05:44:42;97179.53;;;6.46;93.04
4199;BME280;2113;50.946;14.610;2023-03-20T05:47:22;97177.16;;;6.42;93.30
4199;BME280;2113;50.946;14.610;2023-03-20T05:50:02;97174.72;;;6.41;93.54
4199;BME280;2113;50.946;14.610;2023-03-20T05:52:48;97186.38;;;6.47;93.66
4199;BME280;2113;50.946;14.610;2023-03-20T05:55:42;97184.16;;;6.42;93.87
4199;BME280;2113;50.946;14.610;2023-03-20T05:58:31;97181.59;;;6.53;93.31
4199;BME280;2113;50.946;14.610;2023-03-20T06:01:19;97190.47;;;6.62;92.72
4199;BME280;2113;50.946;14.610;2023-03-20T06:03:52;97189.09;;;6.69;92.30
4199;BME280;2113;50.946;14.610;2023-03-20T06:06:40;97188.84;;;6.72;92.08
4199;BME280;2113;50.946;14.610;2023-03-20T06:09:08;97189.78;;;6.71;92.48
4199;BME280;2113;50.946;14.610;2023-03-20T06:11:37;97192.28;;;6.72;92.38
4199;BME280;2113;50.946;14.610;2023-03-20T06:14:06;97187.69;;;6.76;92.43
4199;BME280;2113;50.946;14.610;2023-03-20T06:16:37;97181.22;;;6.82;92.02
4199;BME280;2113;50.946;14.610;2023-03-20T06:19:08;97191.66;;;6.93;91.30
4199;BME280;2113;50.946;14.610;2023-03-20T06:21:36;97196.84;;;6.93;92.03
4199;BME280;2113;50.946;14.610;2023-03-20T06:24:08;97196.25;;;7.00;90.97
4199;BME280;2113;50.946;14.610;2023-03-20T06:26:37;97201.72;;;7.08;91.00
4199;BME280;2113;50.946;14.610;2023-03-20T06:29:09;97207.38;;;7.13;91.17
4199;BME280;2113;50.946;14.610;2023-03-20T06:31:37;97204.00;;;7.24;90.12
4199;BME280;2113;50.946;14.610;2023-03-20T06:34:11;97209.22;;;7.35;89.50
4199;BME280;2113;50.946;14.610;2023-03-20T06:36:43;97207.91;;;7.41;89.10
4199;BME280;2113;50.946;14.610;2023-03-20T06:39:17;97210.88;;;7.47;88.49
4199;BME280;2113;50.946;14.610;2023-03-20T06:41:46;97210.66;;;7.51;89.02
4199;BME280;2113;50.946;14.610;2023-03-20T06:44:15;97206.63;;;7.58;88.35
4199;BME280;2113;50.946;14.610;2023-03-20T06:47:09;97209.59;;;7.64;87.95
4199;BME280;2113;50.946;14.610;2023-03-20T06:49:39;97216.22;;;7.68;88.38
4199;BME280;2113;50.946;14.610;2023-03-20T06:52:13;97214.69;;;7.77;88.14
4199;BME280;2113;50.946;14.610;2023-03-20T06:54:48;97214.69;;;7.77;87.79
4199;BME280;2113;50.946;14.610;2023-03-20T06:57:18;97215.97;;;7.82;87.26
4199;BME280;2113;50.946;14.610;2023-03-20T06:59:46;97217.50;;;7.85;87.25
4199;BME280;2113;50.946;14.610;2023-03-20T07:02:14;97218.22;;;7.87;87.12
4199;BME280;2113;50.946;14.610;2023-03-20T07:04:45;97220.47;;;7.92;86.93
4199;BME280;2113;50.946;14.610;2023-03-20T07:07:14;97215.38;;;8.01;87.43
4199;BME280;2113;50.946;14.610;2023-03-20T07:09:43;97222.56;;;8.09;87.07
4199;BME280;2113;50.946;14.610;2023-03-20T07:12:14;97222.13;;;8.15;86.10
4199;BME280;2113;50.946;14.610;2023-03-20T07:14:46;97224.72;;;8.15;86.67
4199;BME280;2113;50.946;14.610;2023-03-20T07:17:17;97228.13;;;8.15;86.15
4199;BME280;2113;50.946;14.610;2023-03-20T07:19:48;97220.94;;;8.19;85.68
4199;BME280;2113;50.946;14.610;2023-03-20T07:22:20;97223.88;;;8.26;85.22
4199;BME280;2113;50.946;14.610;2023-03-20T07:24:50;97218.91;;;8.34;85.47
4199;BME280;2113;50.946;14.610;2023-03-20T07:27:22;97223.03;;;8.36;85.51
4199;BME280;2113;50.946;14.610;2023-03-20T07:29:53;97224.47;;;8.40;85.42
4199;BME280;2113;50.946;14.610;2023-03-20T07:32:22;97228.59;;;8.43;84.81
4199;BME280;2113;50.946;14.610;2023-03-20T07:34:53;97223.84;;;8.48;84.39
4199;BME280;2113;50.946;14.610;2023-03-20T07:37:21;97226.78;;;8.54;85.27
4199;BME280;2113;50.946;14.610;2023-03-20T07:40:02;97212.47;;;8.60;85.33
4199;BME280;2113;50.946;14.610;2023-03-20T07:42:41;97224.16;;;8.66;84.63
4199;BME280;2113;50.946;14.610;2023-03-20T07:45:12;97229.69;;;8.72;84.34
4199;BME280;2113;50.946;14.610;2023-03-20T07:47:44;97229.19;;;8.78;83.72
4199;BME280;2113;50.946;14.610;2023-03-20T07:50:16;97226.88;;;8.96;84.19
4199;BME280;2113;50.946;14.610;2023-03-20T07:52:45;97226.63;;;9.20;83.45
4199;BME280;2113;50.946;14.610;2023-03-20T07:55:15;97227.03;;;9.15;82.73
4199;BME280;2113;50.946;14.610;2023-03-20T07:57:44;97228.94;;;9.34;82.26
4199;BME280;2113;50.946;14.610;2023-03-20T08:00:16;97220.72;;;9.18;81.77
4199;BME280;2113;50.946;14.610;2023-03-20T08:02:44;97222.59;;;9.27;81.51
4199;BME280;2113;50.946;14.610;2023-03-20T08:08:35;97217.06;;;9.72;79.83
4199;BME280;2113;50.946;14.610;2023-03-20T08:11:04;97221.41;;;9.61;80.53
4199;BME280;2113;50.946;14.610;2023-03-20T08:13:33;97218.25;;;9.88;80.32
4199;BME280;2113;50.946;14.610;2023-03-20T08:16:01;97223.47;;;9.98;80.57
4199;BME280;2113;50.946;14.610;2023-03-20T08:18:29;97221.75;;;10.08;79.91
4199;BME280;2113;50.946;14.610;2023-03-20T08:20:57;97218.69;;;10.33;79.18
4199;BME280;2113;50.946;14.610;2023-03-20T08:23:26;97216.94;;;10.13;78.83
4199;BME280;2113;50.946;14.610;2023-03-20T08:25:55;97221.97;;;10.26;78.76
4199;BME280;2113;50.946;14.610;2023-03-20T08:28:24;97219.25;;;10.37;78.06
4199;BME280;2113;50.946;14.610;2023-03-20T08:31:09;97213.25;;;11.23;74.53
4199;BME280;2113;50.946;14.610;2023-03-20T08:33:38;97207.75;;;11.07;75.65
4199;BME280;2113;50.946;14.610;2023-03-20T08:36:07;97210.19;;;11.37;74.93
4199;BME280;2113;50.946;14.610;2023-03-20T08:38:35;97213.09;;;12.28;71.29
4199;BME280;2113;50.946;14.610;2023-03-20T08:41:06;97217.28;;;12.38;72.01
4199;BME280;2113;50.946;14.610;2023-03-20T08:43:35;97215.81;;;14.28;64.43
4199;BME280;2113;50.946;14.610;2023-03-20T08:46:04;97210.44;;;15.28;60.63
4199;BME280;2113;50.946;14.610;2023-03-20T08:48:34;97210.72;;;14.85;59.49
4199;BME280;2113;50.946;14.610;2023-03-20T08:51:03;97224.59;;;13.77;63.14
4199;BME280;2113;50.946;14.610;2023-03-20T08:53:32;97227.00;;;11.91;70.51
4199;BME280;2113;50.946;14.610;2023-03-20T08:56:00;97230.09;;;11.67;71.68
4199;BME280;2113;50.946;14.610;2023-03-20T08:58:30;97228.69;;;12.20;70.46
4199;BME280;2113;50.946;14.610;2023-03-20T09:01:03;97229.84;;;12.80;67.51
4199;BME280;2113;50.946;14.610;2023-03-20T09:03:31;97230.03;;;12.51;69.13
4199;BME280;2113;50.946;14.610;2023-03-20T09:05:59;97240.00;;;11.73;71.07
4199;BME280;2113;50.946;14.610;2023-03-20T09:08:27;97231.94;;;11.38;73.57
4199;BME280;2113;50.946;14.610;2023-03-20T09:10:56;97238.28;;;10.97;76.14
4199;BME280;2113;50.946;14.610;2023-03-20T09:13:24;97235.66;;;10.68;77.34
4199;BME280;2113;50.946;14.610;2023-03-20T09:15:55;97240.63;;;10.71;77.55
4199;BME280;2113;50.946;14.610;2023-03-20T09:18:24;97240.34;;;10.64;77.19
4199;BME280;2113;50.946;14.610;2023-03-20T09:20:52;97241.97;;;10.56;77.40
4199;BME280;2113;50.946;14.610;2023-03-20T09:23:22;97236.22;;;10.62;77.89
4199;BME280;2113;50.946;14.610;2023-03-20T09:25:51;97247.88;;;10.58;77.07
4199;BME280;2113;50.946;14.610;2023-03-20T09:28:19;97241.16;;;10.65;77.66
4199;BME280;2113;50.946;14.610;2023-03-20T09:30:47;97240.88;;;10.68;78.22
4199;BME280;2113;50.946;14.610;2023-03-20T09:33:17;97243.50;;;10.68;77.31
4199;BME280;2113;50.946;14.610;2023-03-20T09:35:45;97243.63;;;10.57;77.53
4199;BME280;2113;50.946;14.610;2023-03-20T09:38:14;97247.22;;;10.65;77.84
4199;BME280;2113;50.946;14.610;2023-03-20T09:41:00;97243.09;;;10.73;76.49
4199;BME280;2113;50.946;14.610;2023-03-20T09:43:43;97238.44;;;10.86;76.24
4199;BME280;2113;50.946;14.610;2023-03-20T09:46:24;97245.44;;;11.33;74.90
4199;BME280;2113;50.946;14.610;2023-03-20T09:49:04;97245.47;;;11.90;73.54
4199;BME280;2113;50.946;14.610;2023-03-20T09:51:37;97239.16;;;12.20;71.13
4199;BME280;2113;50.946;14.610;2023-03-20T09:54:16;97235.84;;;13.69;66.34
4199;BME280;2113;50.946;14.610;2023-03-20T09:56:48;97220.78;;;15.38;61.87
4199;BME280;2113;50.946;14.610;2023-03-20T09:59:18;97222.09;;;15.18;62.80
4199;BME280;2113;50.946;14.610;2023-03-20T10:01:49;97223.72;;;15.84;60.60
4199;BME280;2113;50.946;14.610;2023-03-20T10:04:22;97220.88;;;16.02;58.31
4199;BME280;2113;50.946;14.610;2023-03-20T10:06:52;97225.25;;;15.29;58.65
4199;BME280;2113;50.946;14.610;2023-03-20T10:09:22;97220.38;;;14.60;61.56
4199;BME280;2113;50.946;14.610;2023-03-20T10:12:05;97239.75;;;13.04;66.10
4199;BME280;2113;50.946;14.610;2023-03-20T10:14:43;97224.22;;;12.75;65.66
4199;BME280;2113;50.946;14.610;2023-03-20T10:17:27;97217.19;;;14.06;64.52
4199;BME280;2113;50.946;14.610;2023-03-20T10:20:09;97222.97;;;14.44;62.74
4199;BME280;2113;50.946;14.610;2023-03-20T10:22:41;97223.75;;;13.50;64.73
4199;BME280;2113;50.946;14.610;2023-03-20T10:25:22;97225.88;;;12.94;67.62
4199;BME280;2113;50.946;14.610;2023-03-20T10:27:56;97222.44;;;12.75;69.54
4199;BME280;2113;50.946;14.610;2023-03-20T10:30:41;97221.72;;;13.19;67.10
4199;BME280;2113;50.946;14.610;2023-03-20T10:33:22;97222.50;;;13.01;67.00
4199;BME280;2113;50.946;14.610;2023-03-20T10:36:04;97227.59;;;13.03;67.55
4199;BME280;2113;50.946;14.610;2023-03-20T10:38:42;97218.84;;;13.30;67.95
4199;BME280;2113;50.946;14.610;2023-03-20T10:41:15;97225.50;;;13.06;67.80
4199;BME280;2113;50.946;14.610;2023-03-20T10:43:46;97214.44;;;12.95;68.13
4199;BME280;2113;50.946;14.610;2023-03-20T10:46:19;97216.44;;;12.65;67.44
4199;BME280;2113;50.946;14.610;2023-03-20T10:48:51;97217.72;;;12.79;68.39
4199;BME280;2113;50.946;14.610;2023-03-20T10:51:35;97224.78;;;12.96;67.78
4199;BME280;2113;50.946;14.610;2023-03-20T10:54:09;97229.38;;;12.22;70.03
4199;BME280;2113;50.946;14.610;2023-03-20T10:56:43;97222.66;;;11.82;69.66
4199;BME280;2113;50.946;14.610;2023-03-20T10:59:19;97230.06;;;11.87;70.24
4199;BME280;2113;50.946;14.610;2023-03-20T11:01:49;97227.19;;;11.70;70.32
4199;BME280;2113;50.946;14.610;2023-03-20T11:04:17;97225.69;;;11.78;71.46
4199;BME280;2113;50.946;14.610;2023-03-20T11:06:53;97232.72;;;11.67;70.37
4199;BME280;2113;50.946;14.610;2023-03-20T11:09:26;97236.69;;;11.71;72.39
4199;BME280;2113;50.946;14.610;2023-03-20T11:11:57;97234.06;;;11.81;70.44
4199;BME280;2113;50.946;14.610;2023-03-20T11:14:31;97232.38;;;11.90;72.36
4199;BME280;2113;50.946;14.610;2023-03-20T11:17:01;97228.44;;;11.86;71.69
4199;BME280;2113;50.946;14.610;2023-03-20T11:19:32;97226.50;;;11.78;71.14
4199;BME280;2113;50.946;14.610;2023-03-20T11:22:07;97234.81;;;11.54;72.40
4199;BME280;2113;50.946;14.610;2023-03-20T11:24:38;97230.63;;;11.71;73.49
4199;BME280;2113;50.946;14.610;2023-03-20T11:27:10;97219.88;;;11.84;71.24
4199;BME280;2113;50.946;14.610;2023-03-20T11:29:40;97217.97;;;11.86;70.60
4199;BME280;2113;50.946;14.610;2023-03-20T11:32:21;97210.25;;;12.39;72.19
4199;BME280;2113;50.946;14.610;2023-03-20T11:34:53;97217.88;;;12.32;68.95
4199;BME280;2113;50.946;14.610;2023-03-20T11:37:26;97216.94;;;12.51;70.80
4199;BME280;2113;50.946;14.610;2023-03-20T11:39:59;97219.56;;;12.24;67.67
4199;BME280;2113;50.946;14.610;2023-03-20T11:42:34;97211.09;;;12.39;70.25
4199;BME280;2113;50.946;14.610;2023-03-20T11:45:05;97213.19;;;12.71;68.68
4199;BME280;2113;50.946;14.610;2023-03-20T11:47:41;97212.28;;;12.45;67.54
4199;BME280;2113;50.946;14.610;2023-03-20T11:50:24;97214.75;;;12.46;68.08
4199;BME280;2113;50.946;14.610;2023-03-20T11:52:56;97212.59;;;12.15;68.01
4199;BME280;2113;50.946;14.610;2023-03-20T11:55:27;97212.84;;;12.21;69.29
4199;BME280;2113;50.946;14.610;2023-03-20T11:57:58;97209.63;;;12.00;68.64
4199;BME280;2113;50.946;14.610;2023-03-20T12:00:29;97209.97;;;12.15;68.19
4199;BME280;2113;50.946;14.610;2023-03-20T12:03:02;97204.75;;;12.15;67.15
4199;BME280;2113;50.946;14.610;2023-03-20T12:05:32;97201.78;;;12.27;66.21
4199;BME280;2113;50.946;14.610;2023-03-20T12:08:08;97196.75;;;12.16;65.90
4199;BME280;2113;50.946;14.610;2023-03-20T12:10:41;97195.38;;;12.39;66.65
4199;BME280;2113;50.946;14.610;2023-03-20T12:13:13;97188.22;;;12.32;66.29
4199;BME280;2113;50.946;14.610;2023-03-20T12:15:47;97194.84;;;12.36;66.06
4199;BME280;2113;50.946;14.610;2023-03-20T12:18:24;97189.78;;;12.52;66.63
4199;BME280;2113;50.946;14.610;2023-03-20T12:21:01;97190.56;;;12.35;66.23
4199;BME280;2113;50.946;14.610;2023-03-20T12:23:34;97192.69;;;12.49;66.56
4199;BME280;2113;50.946;14.610;2023-03-20T12:26:07;97193.97;;;12.63;67.18
4199;BME280;2113;50.946;14.610;2023-03-20T12:28:43;97191.38;;;12.80;66.28
4199;BME280;2113;50.946;14.610;2023-03-20T12:31:20;97194.94;;;12.79;67.15
4199;BME280;2113;50.946;14.610;2023-03-20T12:33:53;97195.22;;;12.41;67.83
4199;BME280;2113;50.946;14.610;2023-03-20T12:36:29;97195.44;;;12.48;68.60
4199;BME280;2113;50.946;14.610;2023-03-20T12:39:01;97194.91;;;12.26;69.59
4199;BME280;2113;50.946;14.610;2023-03-20T12:41:38;97195.44;;;12.02;69.13
4199;BME280;2113;50.946;14.610;2023-03-20T12:44:15;97190.91;;;12.22;69.71
4199;BME280;2113;50.946;14.610;2023-03-20T12:46:55;97191.81;;;12.13;68.36
4199;BME280;2113;50.946;14.610;2023-03-20T12:49:34;97187.66;;;12.38;70.06
4199;BME280;2113;50.946;14.610;2023-03-20T12:52:12;97188.50;;;12.11;68.65
4199;BME280;2113;50.946;14.610;2023-03-20T12:55:05;97182.03;;;12.05;69.09
4199;BME280;2113;50.946;14.610;2023-03-20T12:57:40;97181.56;;;11.92;70.69
4199;BME280;2113;50.946;14.610;2023-03-20T13:00:18;97180.03;;;11.99;72.14
4199;BME280;2113;50.946;14.610;2023-03-20T13:03:00;97180.78;;;12.09;70.25
4199;BME280;2113;50.946;14.610;2023-03-20T13:05:38;97180.59;;;12.21;70.21
4199;BME280;2113;50.946;14.610;2023-03-20T13:08:19;97182.16;;;12.14;69.56
4199;BME280;2113;50.946;14.610;2023-03-20T13:10:56;97168.75;;;12.17;70.97
4199;BME280;2113;50.946;14.610;2023-03-20T13:13:30;97176.03;;;12.23;69.97
4199;BME280;2113;50.946;14.610;2023-03-20T13:16:12;97184.81;;;12.04;71.21
4199;BME280;2113;50.946;14.610;2023-03-20T13:18:53;97178.03;;;11.74;71.74
4199;BME280;2113;50.946;14.610;2023-03-20T13:21:31;97173.06;;;11.81;73.13
4199;BME280;2113;50.946;14.610;2023-03-20T13:24:17;97172.53;;;11.77;71.40
4199;BME280;2113;50.946;14.610;2023-03-20T13:26:56;97176.41;;;11.63;71.87
4199;BME280;2113;50.946;14.610;2023-03-20T13:29:36;97175.38;;;11.37;72.61
4199;BME280;2113;50.946;14.610;2023-03-20T13:32:15;97170.44;;;11.34;73.57
4199;BME280;2113;50.946;14.610;2023-03-20T13:34:58;97173.84;;;11.44;71.63
4199;BME280;2113;50.946;14.610;2023-03-20T13:37:32;97174.69;;;11.45;72.66
4199;BME280;2113;50.946;14.610;2023-03-20T13:40:07;97164.63;;;11.40;73.85
4199;BME280;2113;50.946;14.610;2023-03-20T13:42:44;97169.13;;;11.57;71.94
4199;BME280;2113;50.946;14.610;2023-03-20T13:45:24;97170.69;;;11.40;71.96
4199;BME280;2113;50.946;14.610;2023-03-20T13:47:59;97170.41;;;11.44;74.06
4199;BME280;2113;50.946;14.610;2023-03-20T13:50:39;97163.41;;;11.44;73.57
4199;BME280;2113;50.946;14.610;2023-03-20T13:53:18;97161.28;;;11.57;72.57
4199;BME280;2113;50.946;14.610;2023-03-20T13:55:54;97157.13;;;11.64;71.78
4199;BME280;2113;50.946;14.610;2023-03-20T13:58:40;97156.38;;;11.45;73.39
4199;BME280;2113;50.946;14.610;2023-03-20T14:01:18;97156.09;;;11.48;73.13
4199;BME280;2113;50.946;14.610;2023-03-20T14:03:49;97159.81;;;11.35;73.08